createdAt,value
2023-12-29T00:00:42.919Z,77.14
2023-12-29T00:03:33.432Z,78.26
2023-12-29T00:06:04.043Z,78.84
2023-12-29T00:08:32.931Z,78.13
2023-12-29T00:11:03.693Z,78.78
2023-12-29T00:13:31.811Z,80.90
2023-12-29T00:15:59.872Z,81.01
2023-12-29T00:18:28.155Z,81.29
2023-12-29T00:21:06.348Z,81.40
2023-12-29T00:23:36.464Z,80.55
2023-12-29T00:26:05.033Z,79.92
2023-12-29T00:28:34.043Z,79.05
2023-12-29T00:31:03.591Z,79.17
2023-12-29T00:33:33.337Z,79.89
2023-12-29T00:36:03.170Z,80.28
2023-12-29T00:38:31.913Z,80.71
2023-12-29T00:41:02.332Z,80.52
2023-12-29T00:43:30.404Z,80.56
2023-12-29T00:45:58.277Z,82.39
2023-12-29T00:48:26.902Z,82.89
2023-12-29T00:50:54.592Z,82.39
2023-12-29T00:53:27.468Z,81.80
2023-12-29T00:55:55.208Z,82.03
2023-12-29T00:58:23.416Z,82.70
2023-12-29T01:00:51.461Z,82.38
2023-12-29T01:03:21.042Z,81.46
2023-12-29T01:05:50.941Z,82.38
2023-12-29T01:08:19.308Z,83.03
2023-12-29T01:10:48.576Z,82.64
2023-12-29T01:13:16.715Z,81.67
2023-12-29T01:15:44.514Z,80.83
2023-12-29T01:18:13.029Z,80.71
2023-12-29T01:20:41.009Z,79.97
2023-12-29T01:23:09.404Z,79.38
2023-12-29T01:25:37.069Z,78.58
2023-12-29T01:28:07.335Z,78.65
2023-12-29T01:30:34.992Z,78.15
2023-12-29T01:33:03.779Z,77.97
2023-12-29T01:35:31.458Z,77.96
2023-12-29T01:37:59.927Z,77.84
2023-12-29T01:40:27.894Z,77.95
2023-12-29T01:42:55.972Z,77.25
2023-12-29T01:45:25.809Z,76.90
2023-12-29T01:47:54.638Z,76.18
2023-12-29T01:50:23.440Z,75.97
2023-12-29T01:52:53.821Z,76.09
2023-12-29T01:55:22.859Z,76.01
2023-12-29T01:57:52.302Z,76.69
2023-12-29T02:00:20.591Z,76.75
2023-12-29T02:02:51.173Z,76.77
2023-12-29T02:05:21.875Z,76.69
2023-12-29T02:07:53.023Z,76.87
2023-12-29T02:10:21.156Z,76.74
2023-12-29T02:12:49.431Z,76.62
2023-12-29T02:15:18.134Z,76.54
2023-12-29T02:17:49.026Z,76.45
2023-12-29T02:20:18.688Z,76.30
2023-12-29T02:22:46.905Z,76.26
2023-12-29T02:25:17.124Z,76.73
2023-12-29T02:27:53.188Z,76.17
2023-12-29T02:30:25.055Z,76.37
2023-12-29T02:32:56.760Z,76.14
2023-12-29T02:35:28.225Z,76.02
2023-12-29T02:37:58.083Z,76.30
2023-12-29T02:40:27.807Z,76.61
2023-12-29T02:42:56.353Z,75.97
2023-12-29T02:45:24.216Z,75.04
2023-12-29T02:47:52.817Z,75.89
2023-12-29T02:50:21.231Z,75.04
2023-12-29T02:52:52.242Z,75.92
2023-12-29T02:55:20.775Z,76.08
2023-12-29T02:57:51.059Z,75.52
2023-12-29T03:00:19.637Z,75.62
2023-12-29T03:02:47.874Z,76.40
2023-12-29T03:05:15.957Z,76.46
2023-12-29T03:07:44.207Z,76.91
2023-12-29T03:10:12.195Z,76.72
2023-12-29T03:12:40.426Z,76.78
2023-12-29T03:15:10.368Z,76.28
2023-12-29T03:17:39.197Z,76.27
2023-12-29T03:20:08.489Z,76.38
2023-12-29T03:22:37.097Z,76.77
2023-12-29T03:25:05.481Z,76.95
2023-12-29T03:27:34.081Z,77.17
2023-12-29T03:30:01.924Z,78.68
2023-12-29T03:32:32.000Z,78.03
2023-12-29T03:34:59.649Z,77.02
2023-12-29T03:37:28.109Z,76.20
2023-12-29T03:39:56.169Z,76.28
2023-12-29T03:42:24.858Z,76.35
2023-12-29T03:44:55.501Z,76.42
2023-12-29T03:47:23.662Z,77.42
2023-12-29T03:49:52.770Z,78.81
2023-12-29T03:52:22.446Z,79.74
2023-12-29T03:54:50.683Z,79.55
2023-12-29T03:57:20.211Z,79.16
2023-12-29T03:59:48.201Z,79.05
2023-12-29T04:02:17.727Z,79.03
2023-12-29T04:04:45.512Z,78.88
2023-12-29T04:07:15.639Z,78.89
2023-12-29T04:09:43.518Z,78.44
2023-12-29T04:12:11.644Z,78.47
2023-12-29T04:14:39.396Z,77.00
2023-12-29T04:17:07.781Z,77.39
2023-12-29T04:19:35.897Z,76.82
2023-12-29T04:22:04.283Z,77.39
2023-12-29T04:24:33.416Z,77.74
2023-12-29T04:27:01.783Z,77.70
2023-12-29T04:29:29.486Z,77.91
2023-12-29T04:31:57.757Z,78.61
2023-12-29T04:34:25.511Z,80.31
2023-12-29T04:36:53.705Z,81.13
2023-12-29T04:39:21.605Z,81.04
2023-12-29T04:41:51.539Z,80.47
2023-12-29T04:44:19.390Z,80.35
2023-12-29T04:46:47.626Z,79.29
2023-12-29T04:49:15.546Z,79.18
2023-12-29T04:51:43.649Z,80.09
2023-12-29T04:54:13.147Z,80.91
2023-12-29T04:56:41.329Z,80.72
2023-12-29T04:59:10.234Z,80.07
2023-12-29T05:01:38.460Z,79.41
2023-12-29T05:04:06.791Z,79.52
2023-12-29T05:06:38.813Z,79.64
2023-12-29T05:09:06.623Z,80.21
2023-12-29T05:11:34.887Z,80.42
2023-12-29T05:14:02.651Z,80.59
2023-12-29T05:16:32.484Z,79.95
2023-12-29T05:19:00.249Z,79.61
2023-12-29T05:21:28.380Z,79.52
2023-12-29T05:23:56.040Z,78.81
2023-12-29T05:26:24.030Z,78.86
2023-12-29T05:28:51.811Z,79.32
2023-12-29T05:31:20.001Z,78.87
2023-12-29T05:33:49.388Z,78.83
2023-12-29T05:36:17.522Z,78.72
2023-12-29T05:38:47.058Z,79.13
2023-12-29T05:41:15.668Z,78.69
2023-12-29T05:43:43.530Z,78.44
2023-12-29T05:46:11.925Z,78.74
2023-12-29T05:48:39.901Z,78.06
2023-12-29T05:51:11.654Z,77.06
2023-12-29T05:53:41.540Z,77.20
2023-12-29T05:56:13.333Z,77.06
2023-12-29T05:58:41.980Z,77.64
2023-12-29T06:01:10.435Z,77.59
2023-12-29T06:03:38.270Z,78.40
2023-12-29T06:06:07.284Z,77.90
2023-12-29T06:08:36.282Z,77.66
2023-12-29T06:11:04.690Z,78.56
2023-12-29T06:13:32.259Z,78.21
2023-12-29T06:16:00.468Z,77.57
2023-12-29T06:18:30.049Z,77.68
2023-12-29T06:20:59.584Z,77.09
2023-12-29T06:23:29.961Z,77.19
2023-12-29T06:25:59.697Z,77.92
2023-12-29T06:28:29.596Z,77.37
2023-12-29T06:31:03.205Z,76.38
2023-12-29T06:33:32.315Z,75.05
2023-12-29T06:36:00.433Z,75.66
2023-12-29T06:38:28.003Z,76.16
2023-12-29T06:40:56.123Z,77.10
2023-12-29T06:43:25.161Z,76.93
2023-12-29T06:45:53.494Z,77.28
2023-12-29T06:48:21.741Z,77.10
2023-12-29T06:50:49.912Z,77.02
2023-12-29T06:53:17.493Z,77.09
2023-12-29T06:55:46.197Z,76.61
2023-12-29T06:58:13.730Z,77.06
2023-12-29T07:00:44.515Z,76.91
2023-12-29T07:03:14.584Z,76.19
2023-12-29T07:05:43.181Z,75.12
2023-12-29T07:08:14.657Z,74.45
2023-12-29T07:10:43.325Z,73.59
2023-12-29T07:13:11.187Z,72.83
2023-12-29T07:15:43.817Z,72.82
2023-12-29T07:18:12.453Z,72.50
2023-12-29T07:20:43.167Z,72.80
2023-12-29T07:23:11.298Z,72.76
2023-12-29T07:25:39.605Z,72.40
2023-12-29T07:28:07.380Z,72.39
2023-12-29T07:30:35.644Z,72.54
2023-12-29T07:33:05.177Z,72.15
2023-12-29T07:35:33.831Z,71.76
2023-12-29T07:38:01.613Z,72.13
2023-12-29T07:40:29.829Z,72.30
2023-12-29T07:42:57.543Z,72.21
2023-12-29T07:45:26.176Z,72.66
2023-12-29T07:47:54.319Z,72.74
2023-12-29T07:50:23.992Z,72.80
2023-12-29T07:52:52.050Z,72.58
2023-12-29T07:55:20.309Z,72.89
2023-12-29T07:57:48.603Z,72.84
2023-12-29T08:00:17.764Z,72.21
2023-12-29T08:02:46.160Z,72.26
2023-12-29T08:05:15.363Z,72.82
2023-12-29T08:07:45.281Z,72.20
2023-12-29T08:10:14.462Z,71.99
2023-12-29T08:12:42.998Z,72.25
2023-12-29T08:15:12.797Z,72.02
2023-12-29T08:17:40.586Z,71.78
2023-12-29T08:20:12.191Z,71.56
2023-12-29T08:22:40.303Z,71.42
2023-12-29T08:25:11.026Z,71.12
2023-12-29T08:27:38.879Z,71.13
2023-12-29T08:30:08.420Z,71.03
2023-12-29T08:32:36.948Z,70.80
2023-12-29T08:35:06.144Z,71.23
2023-12-29T08:37:34.419Z,70.34
2023-12-29T08:40:02.914Z,70.58
2023-12-29T08:42:32.464Z,71.42
2023-12-29T08:45:01.248Z,71.41
2023-12-29T08:47:29.260Z,72.21
2023-12-29T08:49:58.031Z,72.15
2023-12-29T08:52:26.099Z,71.40
2023-12-29T08:54:54.739Z,69.81
2023-12-29T08:57:22.907Z,68.63
2023-12-29T08:59:52.810Z,68.26
2023-12-29T09:02:23.053Z,67.39
2023-12-29T09:04:51.954Z,66.28
2023-12-29T09:07:20.015Z,66.09
2023-12-29T09:09:51.420Z,66.11
2023-12-29T09:12:19.473Z,65.32
2023-12-29T09:14:48.160Z,65.26
2023-12-29T09:17:18.120Z,64.92
2023-12-29T09:19:51.451Z,64.42
2023-12-29T09:22:24.514Z,65.40
2023-12-29T09:24:55.792Z,64.68
2023-12-29T09:27:24.232Z,64.35
2023-12-29T09:29:53.785Z,64.42
2023-12-29T09:32:23.521Z,64.26
2023-12-29T09:34:51.775Z,64.08
2023-12-29T09:37:19.855Z,63.44
2023-12-29T09:39:48.339Z,63.45
2023-12-29T09:42:23.197Z,63.28
2023-12-29T09:44:53.516Z,62.56
2023-12-29T09:47:24.792Z,61.79
2023-12-29T09:49:55.806Z,61.81
2023-12-29T09:52:24.637Z,61.59
2023-12-29T09:54:54.086Z,62.55
2023-12-29T09:57:22.389Z,62.30
2023-12-29T09:59:52.405Z,61.24
2023-12-29T10:02:23.091Z,59.93
2023-12-29T10:04:51.859Z,60.49
2023-12-29T10:07:30.328Z,59.29
2023-12-29T10:10:00.379Z,60.38
2023-12-29T10:12:30.154Z,60.00
2023-12-29T10:15:06.978Z,59.93
2023-12-29T10:17:50.880Z,58.70
2023-12-29T10:20:33.351Z,58.87
2023-12-29T10:23:10.376Z,59.80
2023-12-29T10:25:39.583Z,59.98
2023-12-29T10:28:08.640Z,59.82
2023-12-29T10:30:37.963Z,60.26
2023-12-29T10:33:08.184Z,59.23
2023-12-29T10:35:37.600Z,59.96
2023-12-29T10:38:15.065Z,59.49
2023-12-29T10:40:44.640Z,59.42
2023-12-29T10:43:13.002Z,61.44
2023-12-29T10:45:42.024Z,59.32
2023-12-29T10:48:11.872Z,58.76
2023-12-29T10:50:47.101Z,58.85
2023-12-29T10:53:18.756Z,58.40
2023-12-29T10:55:47.919Z,58.18
2023-12-29T10:58:18.056Z,58.42
2023-12-29T11:00:46.967Z,58.04
2023-12-29T11:03:17.921Z,58.21
2023-12-29T11:05:48.107Z,59.01
2023-12-29T11:08:22.638Z,60.02
2023-12-29T11:10:51.963Z,60.08
2023-12-29T11:13:23.371Z,60.17
2023-12-29T11:15:53.821Z,59.91
2023-12-29T11:18:24.110Z,60.21
2023-12-29T11:20:53.693Z,61.34
2023-12-29T11:23:22.409Z,61.19
2023-12-29T11:25:54.506Z,59.77
2023-12-29T11:28:22.698Z,59.47
2023-12-29T11:30:51.801Z,57.94
2023-12-29T11:33:28.123Z,57.38
2023-12-29T11:36:03.701Z,56.25
2023-12-29T11:38:44.879Z,56.47
2023-12-29T11:41:23.130Z,56.41
2023-12-29T11:43:58.456Z,57.51
2023-12-29T11:46:37.518Z,58.18
2023-12-29T11:49:08.154Z,56.44
2023-12-29T11:51:37.665Z,55.92
2023-12-29T11:54:06.741Z,57.36
2023-12-29T11:56:39.691Z,55.65
2023-12-29T11:59:15.516Z,54.68
2023-12-29T12:01:47.669Z,54.76
2023-12-29T12:04:38.668Z,54.67
2023-12-29T12:07:11.459Z,55.82
2023-12-29T12:09:39.696Z,56.76
2023-12-29T12:12:07.876Z,56.87
2023-12-29T12:14:59.969Z,57.97
2023-12-29T12:17:32.090Z,57.52
2023-12-29T12:20:04.236Z,57.49
2023-12-29T12:22:35.783Z,58.45
2023-12-29T12:25:06.714Z,58.62
2023-12-29T12:27:39.106Z,58.76
2023-12-29T12:30:08.355Z,59.44
2023-12-29T12:32:36.969Z,60.58
2023-12-29T12:35:16.905Z,58.52
2023-12-29T12:37:46.131Z,59.18
2023-12-29T12:40:26.842Z,58.86
2023-12-29T12:42:55.455Z,58.31
2023-12-29T12:45:27.452Z,58.10
2023-12-29T12:48:02.259Z,57.63
2023-12-29T12:50:32.792Z,56.48
2023-12-29T12:53:03.074Z,57.73
2023-12-29T12:55:38.887Z,57.54
2023-12-29T12:58:07.181Z,57.71
2023-12-29T13:00:35.692Z,59.36
2023-12-29T13:03:04.944Z,59.58
2023-12-29T13:05:36.351Z,60.08
2023-12-29T13:08:07.274Z,59.58
2023-12-29T13:10:35.662Z,59.18
2023-12-29T13:13:04.419Z,59.88
2023-12-29T13:15:32.651Z,60.07
2023-12-29T13:18:01.333Z,59.38
2023-12-29T13:20:29.790Z,58.98
2023-12-29T13:23:00.262Z,59.56
2023-12-29T13:25:29.374Z,58.52
2023-12-29T13:27:58.498Z,59.38
2023-12-29T13:30:26.973Z,60.35
2023-12-29T13:32:55.770Z,61.11
2023-12-29T13:35:30.197Z,61.67
2023-12-29T13:38:09.680Z,60.96
2023-12-29T13:40:44.188Z,60.70
2023-12-29T13:43:16.029Z,60.93
2023-12-29T13:45:44.594Z,61.17
2023-12-29T13:48:15.424Z,61.47
2023-12-29T13:50:46.688Z,61.02
2023-12-29T13:53:21.599Z,61.26
2023-12-29T13:55:50.136Z,61.28
2023-12-29T13:58:19.160Z,61.40
2023-12-29T14:00:55.067Z,61.17
2023-12-29T14:03:29.086Z,61.21
2023-12-29T14:06:00.960Z,61.38
2023-12-29T14:08:34.214Z,61.65
2023-12-29T14:11:02.146Z,61.91
2023-12-29T14:13:30.735Z,61.26
2023-12-29T14:16:04.744Z,61.68
2023-12-29T14:18:56.245Z,61.22
2023-12-29T14:21:27.584Z,61.69
2023-12-29T14:24:08.916Z,61.80
2023-12-29T14:26:37.761Z,62.12
2023-12-29T14:29:08.323Z,61.98
2023-12-29T14:31:37.574Z,62.15
2023-12-29T14:34:06.227Z,62.21
2023-12-29T14:36:34.356Z,62.32
2023-12-29T14:39:07.474Z,62.40
2023-12-29T14:41:35.431Z,62.50
2023-12-29T14:44:05.043Z,63.19
2023-12-29T14:46:33.098Z,63.73
2023-12-29T14:49:01.733Z,63.20
2023-12-29T14:51:30.174Z,63.18
2023-12-29T14:53:58.530Z,63.48
2023-12-29T14:56:27.769Z,63.31
2023-12-29T14:58:56.069Z,63.48
2023-12-29T15:01:24.942Z,63.82
2023-12-29T15:03:53.343Z,63.88
2023-12-29T15:06:21.171Z,63.79
2023-12-29T15:08:49.920Z,64.11
2023-12-29T15:11:17.791Z,63.95
2023-12-29T15:13:48.075Z,64.05
2023-12-29T15:16:15.962Z,64.24
2023-12-29T15:18:44.328Z,64.63
2023-12-29T15:21:12.611Z,64.13
2023-12-29T15:23:41.273Z,63.93
2023-12-29T15:26:08.935Z,63.84
2023-12-29T15:28:37.256Z,63.62
2023-12-29T15:31:07.374Z,63.55
2023-12-29T15:33:36.047Z,64.06
2023-12-29T15:36:04.657Z,64.23
2023-12-29T15:38:33.454Z,64.51
2023-12-29T15:41:07.132Z,64.38
2023-12-29T15:43:35.925Z,64.35
2023-12-29T15:46:13.170Z,64.67
2023-12-29T15:48:43.528Z,64.87
2023-12-29T15:51:11.817Z,65.24
2023-12-29T15:53:40.965Z,65.62
2023-12-29T15:56:09.263Z,65.95
2023-12-29T15:58:37.437Z,66.18
2023-12-29T16:01:05.831Z,65.98
2023-12-29T16:03:35.213Z,65.91
2023-12-29T16:06:05.102Z,65.49
2023-12-29T16:08:33.937Z,65.72
2023-12-29T16:11:01.972Z,65.48
2023-12-29T16:13:30.048Z,65.75
2023-12-29T16:15:57.747Z,65.36
2023-12-29T16:18:26.003Z,65.17
2023-12-29T16:20:54.568Z,65.32
2023-12-29T16:23:24.521Z,64.80
2023-12-29T16:25:52.316Z,64.77
2023-12-29T16:28:20.624Z,64.73
2023-12-29T16:30:48.298Z,64.39
2023-12-29T16:33:16.726Z,64.59
2023-12-29T16:35:44.422Z,64.46
2023-12-29T16:38:12.917Z,64.23
2023-12-29T16:40:45.468Z,63.99
2023-12-29T16:43:13.716Z,63.76
2023-12-29T16:45:41.495Z,63.98
2023-12-29T16:48:09.518Z,64.11
2023-12-29T16:50:37.333Z,63.59
2023-12-29T16:53:05.656Z,63.33
2023-12-29T16:55:33.301Z,63.65
2023-12-29T16:58:02.891Z,63.50
2023-12-29T17:00:30.900Z,63.40
2023-12-29T17:02:59.558Z,63.73
2023-12-29T17:05:27.669Z,63.75
2023-12-29T17:07:57.032Z,64.01
2023-12-29T17:10:25.193Z,64.06
2023-12-29T17:12:53.928Z,63.87
2023-12-29T17:15:23.295Z,63.55
2023-12-29T17:17:51.771Z,63.77
2023-12-29T17:20:19.741Z,64.48
2023-12-29T17:22:48.746Z,64.19
2023-12-29T17:25:16.682Z,64.67
2023-12-29T17:27:47.212Z,64.20
2023-12-29T17:30:15.254Z,63.95
2023-12-29T17:32:45.260Z,63.79
2023-12-29T17:35:12.920Z,63.78
2023-12-29T17:37:41.088Z,64.82
2023-12-29T17:40:10.271Z,64.88
2023-12-29T17:42:38.533Z,64.66
2023-12-29T17:45:07.069Z,64.52
2023-12-29T17:47:35.027Z,65.11
2023-12-29T17:50:05.473Z,64.82
2023-12-29T17:52:33.719Z,65.14
2023-12-29T17:55:01.519Z,65.39
2023-12-29T17:57:29.932Z,65.35
2023-12-29T17:59:57.812Z,65.43
2023-12-29T18:02:30.432Z,65.77
2023-12-29T18:04:58.434Z,65.78
2023-12-29T18:07:28.024Z,65.27
2023-12-29T18:09:56.405Z,65.70
2023-12-29T18:12:25.618Z,65.87
2023-12-29T18:14:53.684Z,65.96
2023-12-29T18:17:22.151Z,66.10
2023-12-29T18:19:49.895Z,65.94
2023-12-29T18:22:18.952Z,65.85
2023-12-29T18:24:48.520Z,66.15
2023-12-29T18:27:18.985Z,66.01
2023-12-29T18:29:47.492Z,65.65
2023-12-29T18:32:20.212Z,66.02
2023-12-29T18:34:50.723Z,65.64
2023-12-29T18:37:19.604Z,66.08
2023-12-29T18:39:49.367Z,65.79
2023-12-29T18:42:17.989Z,65.77
2023-12-29T18:44:45.837Z,65.47
2023-12-29T18:47:14.100Z,65.62
2023-12-29T18:49:42.201Z,65.38
2023-12-29T18:52:12.737Z,65.49
2023-12-29T18:54:40.866Z,65.64
2023-12-29T18:57:10.803Z,65.66
2023-12-29T18:59:38.734Z,66.24
2023-12-29T19:02:07.969Z,66.47
2023-12-29T19:04:35.566Z,67.25
2023-12-29T19:07:03.933Z,67.37
2023-12-29T19:09:31.696Z,67.45
2023-12-29T19:12:00.573Z,67.43
2023-12-29T19:14:29.787Z,67.81
2023-12-29T19:16:57.876Z,68.02
2023-12-29T19:19:25.638Z,68.08
2023-12-29T19:21:54.312Z,68.69
2023-12-29T19:24:22.210Z,68.58
2023-12-29T19:26:51.556Z,68.47
2023-12-29T19:29:20.060Z,68.38
2023-12-29T19:31:49.833Z,68.09
2023-12-29T19:34:17.660Z,68.57
2023-12-29T19:36:46.226Z,68.70
2023-12-29T19:39:13.941Z,68.31
2023-12-29T19:41:42.222Z,68.26
2023-12-29T19:44:10.289Z,68.28
2023-12-29T19:46:42.092Z,68.15
2023-12-29T19:49:11.388Z,68.03
2023-12-29T19:51:39.957Z,68.42
2023-12-29T19:54:07.882Z,68.30
2023-12-29T19:56:37.025Z,68.15
2023-12-29T19:59:04.665Z,67.97
2023-12-29T20:01:38.613Z,68.13
2023-12-29T20:04:13.676Z,67.69
2023-12-29T20:06:42.124Z,67.52
2023-12-29T20:09:10.033Z,67.88
2023-12-29T20:11:39.915Z,67.63
2023-12-29T20:14:08.149Z,67.66
2023-12-29T20:16:36.775Z,67.90
2023-12-29T20:19:07.582Z,68.15
2023-12-29T20:21:37.415Z,67.77
2023-12-29T20:24:07.199Z,67.69
2023-12-29T20:26:37.374Z,67.70
2023-12-29T20:29:05.301Z,67.63
2023-12-29T20:31:37.149Z,67.81
2023-12-29T20:34:05.367Z,67.35
2023-12-29T20:36:34.075Z,66.87
2023-12-29T20:39:03.817Z,66.81
2023-12-29T20:41:32.605Z,67.35
2023-12-29T20:44:00.719Z,67.32
2023-12-29T20:46:29.292Z,66.66
2023-12-29T20:48:57.240Z,67.08
2023-12-29T20:51:25.577Z,66.93
2023-12-29T20:53:53.546Z,66.81
2023-12-29T20:56:23.411Z,67.03
2023-12-29T20:58:54.339Z,66.84
2023-12-29T21:01:25.020Z,66.58
2023-12-29T21:03:53.570Z,66.84
2023-12-29T21:06:22.014Z,66.72
2023-12-29T21:08:50.521Z,66.86
2023-12-29T21:11:20.209Z,66.83
2023-12-29T21:13:49.592Z,67.22
2023-12-29T21:16:20.190Z,67.18
2023-12-29T21:18:49.053Z,67.19
2023-12-29T21:21:17.703Z,67.11
2023-12-29T21:23:45.537Z,66.95
2023-12-29T21:26:21.344Z,66.83
2023-12-29T21:28:50.482Z,66.97
2023-12-29T21:31:20.564Z,66.87
2023-12-29T21:33:48.886Z,66.24
2023-12-29T21:36:24.257Z,67.07
2023-12-29T21:38:52.416Z,66.80
2023-12-29T21:41:21.599Z,66.64
2023-12-29T21:43:51.335Z,66.69
2023-12-29T21:46:19.707Z,66.57
2023-12-29T21:48:47.509Z,65.66
2023-12-29T21:51:15.705Z,66.14
2023-12-29T21:53:43.425Z,65.94
2023-12-29T21:56:11.601Z,65.83
2023-12-29T21:58:39.838Z,66.06
2023-12-29T22:01:36.036Z,66.14
2023-12-29T22:04:05.713Z,65.68
2023-12-29T22:06:37.186Z,65.97
2023-12-29T22:09:05.052Z,65.59
2023-12-29T22:11:33.448Z,65.75
2023-12-29T22:14:01.663Z,65.82
2023-12-29T22:16:30.450Z,65.66
2023-12-29T22:19:00.313Z,65.72
2023-12-29T22:21:28.773Z,66.02
2023-12-29T22:23:57.193Z,66.47
2023-12-29T22:26:28.029Z,66.32
2023-12-29T22:28:56.178Z,66.07
2023-12-29T22:31:24.364Z,66.42
2023-12-29T22:33:52.366Z,66.93
2023-12-29T22:36:22.873Z,66.72
2023-12-29T22:38:50.626Z,66.70
2023-12-29T22:41:23.746Z,66.85
2023-12-29T22:43:51.264Z,66.94
2023-12-29T22:46:23.493Z,66.80
2023-12-29T22:48:53.406Z,66.53
2023-12-29T22:51:23.598Z,66.42
2023-12-29T22:53:51.431Z,66.38
2023-12-29T22:56:22.589Z,66.11
2023-12-29T22:58:50.700Z,65.96
2023-12-29T23:01:19.639Z,65.84
2023-12-29T23:03:47.755Z,65.81
2023-12-29T23:06:16.530Z,65.32
2023-12-29T23:08:45.774Z,65.42
2023-12-29T23:11:14.400Z,65.61
2023-12-29T23:13:42.232Z,65.74
2023-12-29T23:16:11.346Z,65.55
2023-12-29T23:18:40.166Z,66.04
2023-12-29T23:21:12.653Z,65.96
2023-12-29T23:23:40.232Z,66.19
2023-12-29T23:26:10.258Z,66.50
2023-12-29T23:28:38.318Z,66.82
2023-12-29T23:31:08.879Z,66.37
2023-12-29T23:33:36.969Z,66.17
2023-12-29T23:36:06.538Z,66.40
2023-12-29T23:38:34.380Z,66.46
2023-12-29T23:41:02.793Z,66.89
2023-12-29T23:43:32.201Z,66.72
2023-12-29T23:46:00.473Z,67.00
2023-12-29T23:48:28.424Z,66.67
2023-12-29T23:50:56.784Z,66.82
2023-12-29T23:53:24.923Z,66.60
2023-12-29T23:55:53.014Z,66.80
2023-12-29T23:58:24.409Z,66.92
